Time;durP1;ratioP1;P1;durP2;ratioP2;P2;SDS_P1;SDS_P2;PMS_P1;PMS_P2;Temp;Humidity;BMP_temperature;BMP_pressure;BME280_temperature;BME280_humidity;BME280_pressure;Samples;Min_cycle;Max_cycle;Signal;HPM_P1;HPM_P2
2022/04/18 00:00:25;;;;;;;10.68;3.53;;;5.90;1.00;;;;;;5091527;28;20039;-75
2022/04/18 00:02:54;;;;;;;8.27;2.75;;;6.00;1.00;;;;;;5086945;28;20035;-75
2022/04/18 00:05:21;;;;;;;6.40;2.60;;;5.90;1.00;;;;;;5102565;28;20047;-75
2022/04/18 00:07:49;;;;;;;6.72;3.47;;;5.90;1.00;;;;;;5098576;28;20067;-73
2022/04/18 00:10:16;;;;;;;26.10;10.57;;;5.80;1.00;;;;;;5098034;28;20544;-74
2022/04/18 00:12:44;;;;;;;23.33;10.82;;;5.80;1.00;;;;;;5094977;28;20051;-75
2022/04/18 00:15:11;;;;;;;22.77;10.50;;;5.70;1.00;;;;;;5093519;28;20051;-76
2022/04/18 00:17:39;;;;;;;34.70;15.23;;;5.50;1.00;;;;;;5076508;28;20048;-76
2022/04/18 00:20:09;;;;;;;27.55;13.52;;;5.40;1.00;;;;;;5076182;28;20043;-76
2022/04/18 00:22:37;;;;;;;24.98;13.15;;;5.30;1.00;;;;;;5074857;28;20431;-76
2022/04/18 00:25:05;;;;;;;25.35;12.95;;;5.20;1.00;;;;;;5075428;28;20043;-76
2022/04/18 00:27:32;;;;;;;26.25;13.25;;;5.10;1.00;;;;;;5075760;28;20064;-76
2022/04/18 00:30:00;;;;;;;20.88;11.98;;;5.10;1.00;;;;;;5075014;28;20043;-75
2022/04/18 00:32:28;;;;;;;27.95;12.82;;;5.00;1.00;;;;;;5076388;28;20111;-75
2022/04/18 00:34:55;;;;;;;22.80;12.40;;;4.90;1.00;;;;;;5076449;28;20488;-76
2022/04/18 00:37:24;;;;;;;24.30;12.40;;;4.70;1.00;;;;;;5076924;28;20503;-75
2022/04/18 00:39:52;;;;;;;26.25;13.32;;;4.60;1.00;;;;;;5076012;28;20036;-74
2022/04/18 00:42:19;;;;;;;24.35;11.48;;;4.60;1.00;;;;;;5074012;28;20499;-76
2022/04/18 00:44:46;;;;;;;24.45;11.48;;;4.60;1.00;;;;;;5073243;28;20052;-74
2022/04/18 00:47:14;;;;;;;21.88;11.45;;;4.60;1.00;;;;;;5075036;28;20048;-76
2022/04/18 00:49:41;;;;;;;22.77;11.25;;;4.50;1.00;;;;;;5072991;28;20455;-76
2022/04/18 00:52:10;;;;;;;23.15;11.90;;;4.50;1.00;;;;;;5074569;28;20051;-76
2022/04/18 00:54:39;;;;;;;31.00;16.27;;;4.50;1.00;;;;;;5073576;28;20048;-76
2022/04/18 00:57:06;;;;;;;24.70;12.60;;;4.50;1.00;;;;;;5074952;28;20400;-76
2022/04/18 00:59:34;;;;;;;29.08;13.63;;;4.30;1.00;;;;;;5073628;28;20080;-75
2022/04/18 01:02:02;;;;;;;30.65;13.25;;;4.20;1.00;;;;;;5074373;28;20110;-76
2022/04/18 01:04:29;;;;;;;29.48;13.93;;;4.10;1.00;;;;;;5070398;28;20044;-76
2022/04/18 01:06:57;;;;;;;30.48;14.27;;;4.10;1.00;;;;;;5091311;28;20107;-76
2022/04/18 01:09:25;;;;;;;31.88;15.45;;;4.00;1.00;;;;;;5084222;28;20163;-76
2022/04/18 01:11:54;;;;;;;33.50;16.02;;;4.00;1.00;;;;;;5082926;28;20064;-76
2022/04/18 01:14:48;;;;;;;30.42;15.23;;;3.90;1.00;;;;;;5086158;28;20084;-76
2022/04/18 01:17:15;;;;;;;31.20;16.15;;;3.70;1.00;;;;;;5088936;28;20048;-76
2022/04/18 01:19:57;;;;;;;36.45;17.90;;;3.70;1.00;;;;;;5102283;28;20046;-77
2022/04/18 01:22:46;;;;;;;35.83;17.48;;;3.60;1.00;;;;;;5105457;28;20046;-75
2022/04/18 01:31:05;;;;;;;33.77;14.97;;;3.40;1.00;;;;;;5105386;28;20055;-76
2022/04/18 01:33:33;;;;;;;33.47;15.05;;;3.30;1.00;;;;;;5094238;28;20047;-76
2022/04/18 01:36:00;;;;;;;28.50;12.65;;;3.30;1.00;;;;;;5080149;28;20060;-76
2022/04/18 01:38:29;;;;;;;28.52;12.20;;;3.30;1.00;;;;;;5074304;28;20413;-76
2022/04/18 01:40:57;;;;;;;29.63;16.05;;;3.30;1.00;;;;;;5089567;28;20039;-75
2022/04/18 01:43:25;;;;;;;40.10;17.85;;;3.30;1.00;;;;;;5074411;28;20095;-77
2022/04/18 01:45:53;;;;;;;31.20;15.52;;;3.20;1.00;;;;;;5072732;28;20385;-75
2022/04/18 01:48:26;;;;;;;32.28;15.90;;;3.20;1.00;;;;;;5072855;28;20101;-75
2022/04/18 01:50:54;;;;;;;27.85;12.45;;;3.20;1.00;;;;;;5072910;28;20044;-75
2022/04/18 01:53:23;;;;;;;26.60;11.98;;;3.10;1.00;;;;;;5086740;28;20131;-75
2022/04/18 01:55:52;;;;;;;25.55;11.63;;;3.10;1.00;;;;;;5087718;28;20048;-75
2022/04/18 01:58:21;;;;;;;29.20;13.77;;;3.10;1.00;;;;;;5084876;28;20040;-75
2022/04/18 02:00:49;;;;;;;33.13;14.68;;;3.10;1.00;;;;;;5093489;28;20051;-75
2022/04/18 02:03:17;;;;;;;32.03;13.95;;;3.00;1.00;;;;;;5092823;28;20052;-76
2022/04/18 02:05:44;;;;;;;33.75;16.33;;;2.90;1.00;;;;;;5086810;28;20040;-75
2022/04/18 02:08:13;;;;;;;30.10;15.38;;;2.70;1.00;;;;;;5084802;28;20070;-76
2022/04/18 02:10:40;;;;;;;31.27;14.50;;;2.70;1.00;;;;;;5091635;28;20040;-77
2022/04/18 02:13:13;;;;;;;30.40;14.55;;;2.60;1.00;;;;;;5100602;28;20099;-76
2022/04/18 02:15:42;;;;;;;77.03;33.83;;;2.60;1.00;;;;;;5088323;28;20033;-76
2022/04/18 02:18:10;;;;;;;61.50;27.60;;;2.60;29.90;;;;;;5072569;28;20045;-76
2022/04/18 02:20:37;;;;;;;34.22;16.15;;;2.40;99.90;;;;;;5072610;28;20423;-76
2022/04/18 02:23:06;;;;;;;37.30;15.70;;;2.40;99.90;;;;;;5081119;28;20048;-75
2022/04/18 02:25:34;;;;;;;45.15;16.80;;;2.40;99.90;;;;;;5084887;28;20052;-76
2022/04/18 02:28:08;;;;;;;42.38;17.92;;;2.40;99.90;;;;;;5093471;28;20444;-76
2022/04/18 02:30:47;;;;;;;35.38;15.02;;;2.30;99.90;;;;;;5097064;28;20131;-76
2022/04/18 02:33:14;;;;;;;35.03;16.73;;;2.30;99.90;;;;;;5081405;28;20094;-75
2022/04/18 02:35:42;;;;;;;31.05;14.80;;;2.30;99.90;;;;;;5077015;28;20045;-76
2022/04/18 02:38:10;;;;;;;44.85;18.33;;;2.30;99.90;;;;;;5076861;28;20520;-75
2022/04/18 02:40:45;;;;;;;54.78;21.27;;;2.20;99.90;;;;;;5076805;28;20045;-76
2022/04/18 02:43:13;;;;;;;47.92;19.58;;;2.20;99.90;;;;;;5084319;28;20052;-76
2022/04/18 02:45:43;;;;;;;39.35;18.08;;;2.20;99.90;;;;;;5086720;28;20071;-76
2022/04/18 02:48:16;;;;;;;46.22;16.95;;;2.20;99.90;;;;;;5078602;28;20048;-77
2022/04/18 02:50:47;;;;;;;40.88;16.63;;;2.20;99.90;;;;;;5076593;28;20044;-76
2022/04/18 02:53:16;;;;;;;43.85;17.65;;;2.10;99.90;;;;;;5076352;28;20049;-78
2022/04/18 02:55:52;;;;;;;50.40;19.65;;;2.00;99.90;;;;;;5076410;28;20063;-77
2022/04/18 02:58:19;;;;;;;43.92;19.10;;;2.00;99.90;;;;;;5076347;28;20045;-77
2022/04/18 03:00:47;;;;;;;35.05;17.13;;;1.90;1.00;;;;;;5076415;28;20090;-76
2022/04/18 03:03:16;;;;;;;40.80;17.75;;;1.90;1.00;;;;;;5076937;28;20499;-77
2022/04/18 03:05:45;;;;;;;35.40;16.08;;;1.90;1.00;;;;;;5075878;28;20499;-77
2022/04/18 03:08:13;;;;;;;34.13;15.95;;;1.80;1.00;;;;;;5076610;28;20393;-76
2022/04/18 03:13:31;;;;;;;37.00;17.98;;;1.90;1.00;;;;;;5075471;28;20399;-76
2022/04/18 03:15:59;;;;;;;44.25;19.85;;;1.80;1.00;;;;;;5077571;28;20070;-76
2022/04/18 03:18:30;;;;;;;32.60;17.40;;;1.70;1.00;;;;;;5080014;28;20086;-75
2022/04/18 03:20:58;;;;;;;35.63;15.48;;;1.70;1.00;;;;;;5079641;28;20502;-75
2022/04/18 03:23:26;;;;;;;26.75;15.25;;;1.70;1.00;;;;;;5087220;28;20086;-76
2022/04/18 03:26:14;;;;;;;26.33;14.10;;;1.60;1.00;;;;;;5088286;28;20048;-76
2022/04/18 03:29:02;;;;;;;25.58;13.48;;;1.60;1.00;;;;;;5088259;28;20072;-77
2022/04/18 03:31:29;;;;;;;28.58;13.95;;;1.60;1.00;;;;;;5098492;28;20041;-76
2022/04/18 03:33:58;;;;;;;24.63;12.77;;;1.60;1.00;;;;;;5094940;28;20112;-77
2022/04/18 03:41:58;;;;;;;25.52;12.25;;;1.40;1.00;;;;;;5092821;28;20480;-77
2022/04/18 03:44:25;;;;;;;26.70;13.48;;;1.40;1.00;;;;;;5077303;28;20458;-77
2022/04/18 03:46:53;;;;;;;24.52;12.77;;;1.40;1.00;;;;;;5075033;28;20132;-76
2022/04/18 03:49:22;;;;;;;29.27;15.30;;;1.40;1.00;;;;;;5077057;28;20143;-76
2022/04/18 03:51:52;;;;;;;32.05;16.45;;;1.30;1.00;;;;;;5078370;28;20056;-76
2022/04/18 03:54:20;;;;;;;51.70;26.65;;;1.40;1.00;;;;;;5077284;28;20068;-76
2022/04/18 03:56:48;;;;;;;65.15;34.05;;;1.30;1.00;;;;;;5077225;28;20131;-78
2022/04/18 03:59:31;;;;;;;50.17;28.55;;;1.40;1.00;;;;;;5076731;28;20055;-77
2022/04/18 04:02:03;;;;;;;35.97;23.02;;;1.30;1.00;;;;;;5076863;28;20127;-80
2022/04/18 04:04:34;;;;;;;38.13;22.70;;;1.30;1.00;;;;;;5081166;28;20068;-79
2022/04/18 04:07:05;;;;;;;36.28;19.65;;;1.40;1.00;;;;;;5091936;28;20511;-79
2022/04/18 04:09:35;;;;;;;45.42;23.27;;;1.30;1.00;;;;;;5088236;28;20435;-78
2022/04/18 04:12:05;;;;;;;48.25;28.08;;;1.30;1.00;;;;;;5079680;28;20123;-79
2022/04/18 04:14:40;;;;;;;57.17;30.60;;;1.30;1.00;;;;;;5075548;28;20055;-78
2022/04/18 04:17:08;;;;;;;51.33;25.67;;;1.30;1.00;;;;;;5077980;28;20048;-77
2022/04/18 04:19:38;;;;;;;49.65;25.20;;;1.30;1.00;;;;;;5089491;28;20105;-79
2022/04/18 04:22:15;;;;;;;53.58;23.88;;;1.40;1.00;;;;;;5111643;28;20135;-80
2022/04/18 04:24:48;;;;;;;49.97;23.52;;;1.50;1.00;;;;;;5110886;28;20128;-78
2022/04/18 04:27:15;;;;;;;65.30;32.40;;;1.70;1.00;;;;;;5094381;28;20491;-78
2022/04/18 04:29:42;;;;;;;59.22;29.83;;;1.90;1.00;;;;;;5094702;28;20048;-77
2022/04/18 04:32:13;;;;;;;55.20;27.42;;;2.00;1.00;;;;;;5095601;28;20071;-79
2022/04/18 04:34:44;;;;;;;50.60;25.80;;;2.20;1.00;;;;;;5094300;28;20068;-77
2022/04/18 04:37:34;;;;;;;50.72;24.75;;;2.40;1.00;;;;;;5095299;28;20060;-78
2022/04/18 04:40:24;;;;;;;62.35;31.30;;;2.50;99.90;;;;;;5086033;28;20044;-77
2022/04/18 04:42:52;;;;;;;56.05;28.38;;;2.50;99.90;;;;;;5084523;28;20090;-78
2022/04/18 04:45:19;;;;;;;49.05;25.65;;;2.50;99.90;;;;;;5090727;28;20049;-77
2022/04/18 04:48:18;;;;;;;48.03;23.17;;;2.50;99.90;;;;;;5077857;28;20055;-78
2022/04/18 04:50:54;;;;;;;48.08;23.27;;;2.70;99.90;;;;;;5083288;28;20504;-77
2022/04/18 04:53:22;;;;;;;51.53;23.95;;;2.80;99.90;;;;;;5075377;28;20053;-77
2022/04/18 04:55:50;;;;;;;42.17;21.75;;;3.00;99.90;;;;;;5074972;28;20106;-77
2022/04/18 04:58:18;;;;;;;36.63;20.27;;;3.10;99.90;;;;;;5075004;28;20048;-77
2022/04/18 05:00:59;;;;;;;35.05;18.63;;;3.10;99.90;;;;;;5087657;28;20099;-77
2022/04/18 05:03:34;;;;;;;34.70;18.85;;;3.20;99.90;;;;;;5075715;28;20048;-76
2022/04/18 05:06:03;;;;;;;31.27;18.48;;;3.30;99.90;;;;;;5075483;28;20048;-78
2022/04/18 05:08:37;;;;;;;35.58;18.17;;;3.40;99.90;;;;;;5075206;28;20060;-79
2022/04/18 05:11:06;;;;;;;32.00;17.17;;;3.50;99.90;;;;;;5075775;28;20048;-78
2022/04/18 05:13:55;;;;;;;32.90;15.90;;;3.70;99.90;;;;;;5076544;28;20044;-78
2022/04/18 05:16:40;;;;;;;29.85;15.93;;;3.90;99.90;;;;;;5083170;28;20052;-78
2022/04/18 05:19:28;;;;;;;28.98;17.60;;;4.10;99.90;;;;;;5090139;28;20048;-79
2022/04/18 05:22:23;;;;;;;33.70;18.33;;;4.30;96.60;;;;;;5093307;28;20044;-79
2022/04/18 05:24:55;;;;;;;35.53;18.98;;;4.40;53.90;;;;;;5090710;28;20036;-80
2022/04/18 05:27:37;;;;;;;33.15;19.88;;;4.40;47.30;;;;;;5078101;28;20052;-79
2022/04/18 05:30:09;;;;;;;29.83;18.15;;;4.70;25.90;;;;;;5085723;28;20044;-79
2022/04/18 05:32:39;;;;;;;31.83;17.80;;;4.90;1.00;;;;;;5078022;28;20064;-80
2022/04/18 05:35:10;;;;;;;33.28;21.50;;;5.10;1.00;;;;;;5095968;28;20028;-79
2022/04/18 05:37:40;;;;;;;35.85;19.85;;;5.20;1.00;;;;;;5096282;28;20064;-79
2022/04/18 05:40:28;;;;;;;37.67;21.20;;;5.50;1.00;;;;;;5106489;28;20036;-81
2022/04/18 05:42:58;;;;;;;39.00;23.95;;;5.80;1.00;;;;;;5109808;28;20040;-79
2022/04/18 05:45:31;;;;;;;48.80;26.75;;;6.10;1.00;;;;;;5111003;28;20044;-78
2022/04/18 05:48:12;;;;;;;42.17;24.70;;;6.40;1.00;;;;;;5091491;28;20143;-78
2022/04/18 05:50:46;;;;;;;38.28;21.05;;;6.80;1.00;;;;;;5095671;28;20048;-78
2022/04/18 05:53:32;;;;;;;;;;;7.10;1.00;;;;;;5098967;28;20064;-79
2022/04/18 05:56:06;;;;;;;31.90;16.73;;;7.30;1.00;;;;;;5114949;28;19908;-77
2022/04/18 05:58:46;;;;;;;24.35;15.38;;;7.20;1.00;;;;;;5116514;28;20111;-80
2022/04/18 06:01:34;;;;;;;21.10;12.88;;;7.30;1.00;;;;;;5095406;28;20098;-78
2022/04/18 06:04:07;;;;;;;24.40;12.18;;;7.50;1.00;;;;;;5099213;28;20531;-78
2022/04/18 06:06:37;;;;;;;27.98;12.05;;;7.90;1.00;;;;;;5098774;28;20040;-78
2022/04/18 06:09:06;;;;;;;22.23;12.10;;;8.40;1.00;;;;;;5098688;28;20068;-77
2022/04/18 06:11:36;;;;;;;21.80;12.13;;;8.80;1.00;;;;;;5097954;28;20166;-78
2022/04/18 06:14:18;;;;;;;19.95;11.00;;;9.00;1.00;;;;;;5097892;28;20067;-77
2022/04/18 06:16:51;;;;;;;18.65;9.45;;;9.20;1.00;;;;;;5106274;28;20047;-77
2022/04/18 06:19:22;;;;;;;20.30;9.88;;;9.50;1.00;;;;;;5112977;28;20040;-78
2022/04/18 06:21:50;;;;;;;19.23;9.57;;;9.60;1.00;;;;;;5114251;28;20040;-78
2022/04/18 06:24:20;;;;;;;16.92;9.20;;;9.80;1.00;;;;;;5111404;28;20036;-80
2022/04/18 06:27:00;;;;;;;16.60;8.80;;;10.10;1.00;;;;;;5112166;28;20074;-77
2022/04/18 06:29:31;;;;;;;13.82;8.35;;;10.30;1.00;;;;;;5098431;28;20048;-78
2022/04/18 06:31:58;;;;;;;22.58;8.80;;;10.40;1.00;;;;;;5106753;28;20044;-79
2022/04/18 06:34:27;;;;;;;21.13;10.05;;;10.50;1.00;;;;;;5114071;28;20040;-77
2022/04/18 06:36:59;;;;;;;15.45;7.50;;;10.50;1.00;;;;;;5104420;28;20055;-79
2022/04/18 06:39:38;;;;;;;25.75;14.98;;;10.30;1.00;;;;;;5107364;28;20044;-76
2022/04/18 06:42:13;;;;;;;14.32;8.27;;;10.50;1.00;;;;;;5098126;28;20051;-76
2022/04/18 06:44:49;;;;;;;20.33;8.00;;;10.50;1.00;;;;;;5097616;28;20078;-78
2022/04/18 06:47:19;;;;;;;16.15;7.70;;;10.50;1.00;;;;;;5097237;28;20526;-77
2022/04/18 06:50:10;;;;;;;19.05;8.40;;;10.70;1.00;;;;;;5098291;28;20059;-77
2022/04/18 06:52:55;;;;;;;18.67;8.52;;;10.90;1.00;;;;;;5099918;28;20074;-78
2022/04/18 06:58:21;;;;;;;16.90;7.90;;;10.80;1.00;;;;;;5096638;28;20476;-78
2022/04/18 07:00:48;;;;;;;16.10;7.45;;;10.50;1.00;;;;;;5096953;28;20078;-77
2022/04/18 07:03:18;;;;;;;12.55;6.95;;;10.60;1.00;;;;;;5097393;28;20046;-77
2022/04/18 07:05:46;;;;;;;15.65;8.40;;;10.70;1.00;;;;;;5097418;28;20054;-77
2022/04/18 07:08:13;;;;;;;16.75;7.72;;;10.90;1.00;;;;;;5092143;28;20395;-77
2022/04/18 07:10:42;;;;;;;15.20;7.53;;;10.80;1.00;;;;;;5077861;28;20094;-76
2022/04/18 07:13:10;;;;;;;17.45;9.13;;;11.00;1.00;;;;;;5077032;28;20139;-78
2022/04/18 07:15:39;;;;;;;15.55;6.88;;;11.50;1.00;;;;;;5077617;28;20061;-78
2022/04/18 07:18:10;;;;;;;12.80;7.13;;;11.40;1.00;;;;;;5078361;28;20048;-78
2022/04/18 07:20:39;;;;;;;10.65;5.60;;;11.30;1.00;;;;;;5079018;28;20048;-78
2022/04/18 07:23:09;;;;;;;11.48;5.03;;;11.30;1.00;;;;;;5077262;28;20040;-78
2022/04/18 07:25:53;;;;;;;13.68;6.78;;;11.40;1.00;;;;;;5076906;28;20394;-78
2022/04/18 07:28:27;;;;;;;12.30;6.50;;;11.70;1.00;;;;;;5077029;28;20108;-79
2022/04/18 07:30:55;;;;;;;13.63;8.13;;;11.90;1.00;;;;;;5076636;28;20090;-77
2022/04/18 07:33:23;;;;;;;11.68;6.28;;;12.00;1.00;;;;;;5076011;28;20131;-77
2022/04/18 07:35:51;;;;;;;12.23;7.60;;;12.10;1.00;;;;;;5078933;28;20049;-80
2022/04/18 07:41:08;;;;;;;12.52;7.07;;;12.20;1.00;;;;;;5091060;28;20045;-79
2022/04/18 07:43:42;;;;;;;8.48;5.18;;;12.50;1.00;;;;;;5098526;28;20128;-77
2022/04/18 07:46:12;;;;;;;10.00;4.47;;;12.70;1.00;;;;;;5081805;28;20041;-77
2022/04/18 07:48:41;;;;;;;9.70;4.90;;;12.70;1.00;;;;;;5087614;28;20040;-78
2022/04/18 07:53:54;;;;;;;11.17;5.47;;;12.90;1.00;;;;;;5068776;28;20075;-77
2022/04/18 07:56:23;;;;;;;7.57;3.85;;;12.80;1.00;;;;;;5065417;28;20037;-77
2022/04/18 07:58:51;;;;;;;6.15;3.00;;;12.70;1.00;;;;;;5072925;28;20044;-77
2022/04/18 08:01:28;;;;;;;5.97;2.88;;;12.70;1.00;;;;;;5075482;28;20064;-77
2022/04/18 08:04:00;;;;;;;10.98;5.35;;;12.80;1.00;;;;;;5078130;28;20044;-77
2022/04/18 08:06:30;;;;;;;3.83;1.40;;;12.90;1.00;;;;;;5076268;28;20048;-78
2022/04/18 08:09:18;;;;;;;4.60;1.90;;;12.80;1.00;;;;;;5078188;28;20053;-78
2022/04/18 08:11:47;;;;;;;5.00;3.10;;;12.80;1.00;;;;;;5063969;28;20518;-77
2022/04/18 08:14:20;;;;;;;4.88;1.98;;;12.90;1.00;;;;;;5056247;28;20128;-78
2022/04/18 08:16:50;;;;;;;2.63;1.20;;;12.90;1.00;;;;;;5075859;28;20052;-78
2022/04/18 08:19:39;;;;;;;2.10;1.42;;;12.70;1.00;;;;;;5076203;28;20484;-84
2022/04/18 08:22:07;;;;;;;2.20;1.33;;;12.00;1.00;;;;;;5077652;28;20094;-79
2022/04/18 08:24:47;;;;;;;3.22;1.60;;;11.80;1.00;;;;;;5076539;28;20052;-78
2022/04/18 08:27:35;;;;;;;4.78;2.95;;;11.70;1.00;;;;;;5078757;28;20131;-79
2022/04/18 08:30:11;;;;;;;3.17;1.30;;;12.00;1.00;;;;;;5078018;28;20051;-78
2022/04/18 08:32:57;;;;;;;4.47;1.13;;;12.20;1.00;;;;;;5077580;28;20131;-80
2022/04/18 08:35:24;;;;;;;3.00;1.63;;;12.40;1.00;;;;;;5075650;28;20472;-79
2022/04/18 08:37:52;;;;;;;4.50;1.67;;;12.30;1.00;;;;;;5076673;28;20036;-77
2022/04/18 08:40:21;;;;;;;3.45;1.60;;;12.60;1.00;;;;;;5080650;28;20067;-77
2022/04/18 08:42:55;;;;;;;3.47;1.70;;;12.60;1.00;;;;;;5078177;28;20203;-78
2022/04/18 08:45:25;;;;;;;5.35;2.22;;;12.60;1.00;;;;;;5089755;28;20075;-80
2022/04/18 08:53:28;;;;;;;3.95;1.23;;;12.00;1.00;;;;;;5090754;28;20090;-79
2022/04/18 08:55:57;;;;;;;5.25;1.80;;;12.30;1.00;;;;;;5097214;28;20036;-81
2022/04/18 08:58:32;;;;;;;2.77;1.50;;;12.40;1.00;;;;;;5103234;28;20048;-79
2022/04/18 09:01:02;;;;;;;4.65;1.35;;;12.30;1.00;;;;;;5104990;28;20111;-80
2022/04/18 09:03:51;;;;;;;2.90;1.30;;;12.40;1.00;;;;;;5110436;28;20044;-79
2022/04/18 09:06:25;;;;;;;4.32;1.85;;;12.50;1.00;;;;;;5081502;28;20115;-78
2022/04/18 09:09:05;;;;;;;4.18;1.70;;;12.50;1.00;;;;;;5089704;28;20519;-78
2022/04/18 09:11:36;;;;;;;2.47;1.27;;;12.50;1.00;;;;;;5073239;28;20445;-79
2022/04/18 09:14:10;;;;;;;3.50;1.58;;;12.10;1.00;;;;;;5080436;28;20040;-77
2022/04/18 09:16:40;;;;;;;2.78;1.42;;;12.00;1.00;;;;;;5094840;28;20048;-79
2022/04/18 09:19:12;;;;;;;3.65;1.48;;;12.10;1.00;;;;;;5098512;28;20040;-78
2022/04/18 09:21:45;;;;;;;5.43;1.45;;;12.30;1.00;;;;;;5094442;28;20043;-77
2022/04/18 09:24:34;;;;;;;2.53;1.23;;;12.50;1.00;;;;;;5095281;28;20131;-78
2022/04/18 09:27:14;;;;;;;3.35;1.50;;;12.60;1.00;;;;;;5092282;28;20048;-78
2022/04/18 09:29:46;;;;;;;6.30;1.70;;;12.50;1.00;;;;;;5095906;28;20394;-78
2022/04/18 09:32:23;;;;;;;2.05;1.20;;;12.50;1.00;;;;;;5095488;28;20050;-78
2022/04/18 09:35:10;;;;;;;4.40;1.65;;;12.60;1.00;;;;;;5100279;28;20055;-77
2022/04/18 09:37:46;;;;;;;5.22;2.42;;;12.50;1.00;;;;;;5109097;28;20037;-78
2022/04/18 09:40:23;;;;;;;3.63;1.98;;;12.50;1.00;;;;;;5087105;28;20033;-77
2022/04/18 09:42:53;;;;;;;4.38;1.70;;;12.40;1.00;;;;;;5095729;28;20182;-77
2022/04/18 09:45:31;;;;;;;3.28;1.73;;;12.30;1.00;;;;;;5096672;28;20054;-77
2022/04/18 09:48:02;;;;;;;4.88;2.90;;;12.20;1.00;;;;;;5070055;28;20048;-77
2022/04/18 09:53:47;;;;;;;4.20;1.90;;;11.50;1.00;;;;;;4998507;28;20046;-78
2022/04/18 09:56:16;;;;;;;4.88;1.80;;;11.70;1.00;;;;;;5025353;28;20076;-79
2022/04/18 09:58:44;;;;;;;4.03;2.20;;;11.90;1.00;;;;;;5010422;28;20063;-79
2022/04/18 10:01:14;;;;;;;3.80;2.05;;;11.60;1.00;;;;;;5036000;28;20132;-76
2022/04/18 10:03:43;;;;;;;3.83;2.08;;;11.80;1.00;;;;;;5022964;28;20065;-74
2022/04/18 10:06:12;;;;;;;4.28;2.13;;;12.10;1.00;;;;;;5017892;28;20081;-78
2022/04/18 10:08:40;;;;;;;5.50;2.53;;;12.00;1.00;;;;;;5017269;28;20045;-75
2022/04/18 10:11:09;;;;;;;4.03;2.38;;;11.80;1.00;;;;;;5031525;28;20057;-77
2022/04/18 10:13:37;;;;;;;4.25;1.75;;;11.80;1.00;;;;;;5021229;28;20050;-77
2022/04/18 10:16:06;;;;;;;3.30;2.15;;;11.40;1.00;;;;;;5030923;28;20068;-76
2022/04/18 10:18:41;;;;;;;5.65;2.53;;;11.70;1.00;;;;;;5028892;28;20054;-75
2022/04/18 10:21:28;;;;;;;4.65;2.90;;;11.90;1.00;;;;;;5040170;28;20056;-77
2022/04/18 10:24:34;;;;;;;3.47;2.15;;;12.30;1.00;;;;;;5025703;28;20531;-75
2022/04/18 10:27:47;;;;;;;5.85;3.42;;;12.40;1.00;;;;;;5078902;28;20456;-76
2022/04/18 10:30:16;;;;;;;5.55;2.88;;;11.90;1.00;;;;;;5092292;28;20055;-76
2022/04/18 10:32:44;;;;;;;7.15;3.20;;;11.80;1.00;;;;;;5100361;28;20040;-76
2022/04/18 10:35:15;;;;;;;4.95;2.40;;;12.00;1.00;;;;;;5109646;28;20051;-74
2022/04/18 10:37:44;;;;;;;4.88;2.67;;;12.30;1.00;;;;;;5109163;28;20120;-75
2022/04/18 10:40:17;;;;;;;6.03;2.55;;;12.40;1.00;;;;;;5100814;28;20495;-76
2022/04/18 10:42:44;;;;;;;8.63;3.20;;;12.40;1.00;;;;;;5097020;28;20041;-77
2022/04/18 10:45:14;;;;;;;4.25;2.40;;;12.40;1.00;;;;;;5097026;28;20052;-76
2022/04/18 10:48:18;;;;;;;6.47;3.60;;;12.20;1.00;;;;;;5101170;28;20040;-76
2022/04/18 10:50:50;;;;;;;5.50;2.58;;;12.10;1.00;;;;;;5090434;28;20132;-75
2022/04/18 10:53:20;;;;;;;6.63;3.42;;;12.30;1.00;;;;;;5087012;28;20456;-76
2022/04/18 10:56:11;;;;;;;4.13;2.90;;;12.30;1.00;;;;;;5089115;28;20052;-75
2022/04/18 10:58:41;;;;;;;3.63;2.08;;;12.50;1.00;;;;;;5089338;28;20499;-75
2022/04/18 11:01:12;;;;;;;4.43;2.05;;;12.90;1.00;;;;;;5082623;28;20055;-74
2022/04/18 11:03:41;;;;;;;5.63;2.10;;;13.10;1.00;;;;;;5082243;28;20059;-75
2022/04/18 11:06:12;;;;;;;5.20;2.97;;;13.20;1.00;;;;;;5082722;28;20184;-73
2022/04/18 11:08:40;;;;;;;4.72;2.42;;;13.20;1.00;;;;;;5082238;28;20049;-74
2022/04/18 11:11:08;;;;;;;3.83;2.25;;;13.60;1.00;;;;;;5082830;28;20109;-76
2022/04/18 11:13:36;;;;;;;16.88;3.20;;;13.90;1.00;;;;;;5082166;28;20033;-75
2022/04/18 11:16:48;;;;;;;5.32;3.03;;;14.00;1.00;;;;;;5083069;28;20106;-75
2022/04/18 11:19:20;;;;;;;4.53;2.45;;;14.10;1.00;;;;;;5047351;28;20059;-76
2022/04/18 11:22:22;;;;;;;4.32;2.35;;;14.20;1.00;;;;;;5082598;28;20044;-75
2022/04/18 11:25:02;;;;;;;3.85;2.20;;;13.80;1.00;;;;;;5080606;28;20563;-75
2022/04/18 11:27:41;;;;;;;3.35;2.17;;;13.50;1.00;;;;;;5080552;28;20147;-76
2022/04/18 11:30:15;;;;;;;5.05;2.33;;;12.30;1.00;;;;;;5081671;28;20496;-77
2022/04/18 11:32:44;;;;;;;3.83;2.63;;;12.10;1.00;;;;;;5079140;28;20044;-77
2022/04/18 11:35:13;;;;;;;8.35;2.60;;;12.20;1.00;;;;;;5078475;28;20036;-78
2022/04/18 11:37:44;;;;;;;5.90;2.45;;;12.20;1.00;;;;;;5079331;28;20046;-79
2022/04/18 11:40:13;;;;;;;6.25;2.20;;;12.50;1.00;;;;;;5081514;28;20090;-76
2022/04/18 11:42:42;;;;;;;3.05;1.85;;;12.60;1.00;;;;;;5080930;28;20484;-76
2022/04/18 11:45:11;;;;;;;9.30;4.00;;;12.90;1.00;;;;;;5083515;28;20487;-74
2022/04/18 11:47:41;;;;;;;5.25;2.55;;;12.70;1.00;;;;;;5083280;28;20049;-74
2022/04/18 11:50:10;;;;;;;5.55;3.00;;;12.60;1.00;;;;;;5076630;28;20478;-74
2022/04/18 11:52:39;;;;;;;3.47;1.88;;;13.30;1.00;;;;;;5081719;28;20558;-74
2022/04/18 11:55:11;;;;;;;3.40;1.98;;;13.60;1.00;;;;;;5079736;28;20040;-76
2022/04/18 11:57:39;;;;;;;3.53;2.03;;;13.80;1.00;;;;;;5081411;28;20733;-76
2022/04/18 12:00:10;;;;;;;5.15;2.42;;;13.60;1.00;;;;;;5081839;28;20076;-74
2022/04/18 12:08:14;;;;;;;6.82;2.65;;;13.90;1.00;;;;;;5079793;28;20051;-76
2022/04/18 12:10:43;;;;;;;5.10;3.00;;;13.70;1.00;;;;;;5083249;28;20079;-75
2022/04/18 12:13:11;;;;;;;5.13;2.47;;;13.40;1.00;;;;;;5083013;28;20101;-75
2022/04/18 12:15:40;;;;;;;3.42;1.90;;;13.30;1.00;;;;;;5079861;28;20044;-74
2022/04/18 12:18:12;;;;;;;5.30;3.30;;;13.10;1.00;;;;;;5081294;28;20040;-75
2022/04/18 12:20:43;;;;;;;6.88;2.60;;;13.30;1.00;;;;;;5080342;28;20101;-76
2022/04/18 12:23:15;;;;;;;5.68;3.25;;;13.60;1.00;;;;;;5079190;28;20060;-76
2022/04/18 12:25:46;;;;;;;4.75;2.63;;;13.70;1.00;;;;;;5080492;28;20049;-75
2022/04/18 12:28:14;;;;;;;4.35;2.40;;;13.80;1.00;;;;;;5077495;28;20147;-77
2022/04/18 12:30:42;;;;;;;7.45;2.47;;;13.60;1.00;;;;;;5077908;28;20072;-75
2022/04/18 12:33:19;;;;;;;4.05;2.35;;;12.90;1.00;;;;;;5096970;28;20071;-75
2022/04/18 12:35:48;;;;;;;5.30;2.55;;;12.80;1.00;;;;;;5093389;28;20036;-76
2022/04/18 12:38:17;;;;;;;5.68;3.33;;;12.80;1.00;;;;;;5079435;28;20067;-76
2022/04/18 12:40:47;;;;;;;5.93;3.00;;;12.80;1.00;;;;;;5097898;28;20048;-75
2022/04/18 12:43:17;;;;;;;5.85;3.20;;;12.70;1.00;;;;;;5088475;28;20071;-75
2022/04/18 12:45:50;;;;;;;5.47;3.08;;;12.80;1.00;;;;;;5091253;28;20044;-75
2022/04/18 12:48:22;;;;;;;5.38;3.38;;;12.90;1.00;;;;;;5092020;28;20040;-75
2022/04/18 12:50:50;;;;;;;5.82;3.03;;;13.20;1.00;;;;;;5102346;28;20052;-75
2022/04/18 12:53:18;;;;;;;4.47;2.88;;;13.50;1.00;;;;;;5098705;28;20056;-76
2022/04/18 12:55:47;;;;;;;3.72;2.45;;;13.20;1.00;;;;;;5107832;28;20070;-76
2022/04/18 12:58:21;;;;;;;3.67;2.53;;;12.80;1.00;;;;;;5094640;28;20075;-76
2022/04/18 13:00:51;;;;;;;6.80;2.47;;;12.70;1.00;;;;;;5116673;28;20040;-75
2022/04/18 13:03:20;;;;;;;7.45;3.38;;;12.60;1.00;;;;;;5117002;28;20024;-73
2022/04/18 13:05:50;;;;;;;5.03;2.72;;;12.50;1.00;;;;;;5117585;28;20058;-73
2022/04/18 13:08:19;;;;;;;5.20;3.42;;;12.50;1.00;;;;;;5113697;28;20054;-73
2022/04/18 13:10:56;;;;;;;7.25;4.15;;;12.20;1.00;;;;;;5092112;28;20075;-73
2022/04/18 13:13:23;;;;;;;4.65;2.35;;;11.70;1.00;;;;;;5078022;28;20048;-73
2022/04/18 13:15:51;;;;;;;4.60;2.47;;;11.60;1.00;;;;;;5089277;28;20059;-73
2022/04/18 13:18:21;;;;;;;6.72;3.00;;;11.60;1.00;;;;;;5094276;28;20045;-73
2022/04/18 13:20:50;;;;;;;7.28;2.53;;;12.00;1.00;;;;;;5089710;28;20036;-71
2022/04/18 13:23:17;;;;;;;4.85;2.03;;;12.50;1.00;;;;;;5088929;28;20040;-73
2022/04/18 13:25:47;;;;;;;4.78;2.80;;;12.60;1.00;;;;;;5091859;28;20086;-74
2022/04/18 13:28:15;;;;;;;5.82;2.92;;;12.80;1.00;;;;;;5077327;28;20454;-73
2022/04/18 13:30:44;;;;;;;7.45;3.78;;;12.60;1.00;;;;;;5081461;28;20062;-72
2022/04/18 13:33:12;;;;;;;3.67;2.40;;;12.40;1.00;;;;;;5088328;28;20048;-73
2022/04/18 13:38:22;;;;;;;8.38;4.15;;;11.30;1.00;;;;;;5090022;28;20070;-72
2022/04/18 13:40:51;;;;;;;8.27;4.07;;;11.50;1.00;;;;;;5089731;28;20075;-73
2022/04/18 13:43:21;;;;;;;6.97;3.65;;;11.60;1.00;;;;;;5082871;28;20086;-73
2022/04/18 13:45:48;;;;;;;5.63;3.33;;;11.10;1.00;;;;;;5075738;28;20115;-73
2022/04/18 13:48:18;;;;;;;7.45;3.50;;;11.10;1.00;;;;;;5076519;28;20056;-74
2022/04/18 13:50:46;;;;;;;7.57;4.20;;;11.40;1.00;;;;;;5074595;28;20044;-74
2022/04/18 13:53:13;;;;;;;4.35;2.60;;;11.60;1.00;;;;;;5074818;28;20138;-74
2022/04/18 13:55:41;;;;;;;6.88;2.63;;;11.70;1.00;;;;;;5074599;28;20492;-74